Laukaa, Finland
Kieli:  Suomi
CurCond
Päivitetty07/08/2020 15:54 
 

Lähistön Lentoasemien Säätiloja:

 

EFJY - Jyvaskyla (mil/C,) Finland
Etäisyys Sääasemalta: PKo 21km
Päivitetty: 07/08/2020 15:20
Selkeätä
Selkeätä
 Tuulen suunta varies
Tuuli: varies 6 km/h
Lämpötila: 23°C
Kastepiste: 14°C
Ilmankosteus: 57%
Ilmanpaine: 1025 hPa
Yhteenveto: Selkeätä
Näkyvyys: Enemmän Kuin 10 km
2020/08/07 12:20 EFJY 071220Z AUTO VRB03KT CAVOK 23/14 Q1025
EFHA - Halli (fin-Afb), Finland
Etäisyys Sääasemalta: Lo 56km
Päivitetty: 07/08/2020 15:50
Puolipilvistä
Puolipilvistä
 Tuulen suunta L
Tuuli: L 9 km/h
Lämpötila: 24°C
Kastepiste: 14°C
Ilmankosteus: 54%
Ilmanpaine: 1025 hPa
Pilvisyys: Puolipilvistä
Näkyvyys: 10 km
Pilvisyystiedot: Puolipilvistä 1250 m
2020/08/07 12:50 EFHA 071250Z AUTO 27005KT 210V300 9999 SCT041 24/14 Q1025
EFMI - Mikkeli, Finland
Etäisyys Sääasemalta: IKa 105km
Päivitetty: 07/08/2020 15:50
Puolipilvistä
Puolipilvistä
 
Pilvisyys: Puolipilvistä
Näkyvyys: 10 km
Pilvisyystiedot: Puolipilvistä 1067 m
2020/08/07 12:50 EFMI 071250Z AUTO 9999 SCT035 ///// Q////
 
EFTP - Tampere/Pirkkala, Finland
Etäisyys Sääasemalta: Lo 135km
Päivitetty: 07/08/2020 15:50
Selkeätä
Selkeätä
 Tuulen suunta LLo
Tuuli: LLo 17 km/h
Lämpötila: 25°C
Kastepiste: 15°C
Ilmankosteus: 54%
Ilmanpaine: 1025 hPa
Yhteenveto: Selkeätä
Näkyvyys: Enemmän Kuin 10 km
2020/08/07 12:50 EFTP 071250Z AUTO 25009KT 220V280 CAVOK 25/15 Q1025
EFKU - Kuopio (mil/Civ), Finland
Etäisyys Sääasemalta: Ko 146km
Päivitetty: 07/08/2020 15:50
Joitain Pilviä
Joitain Pilviä
 Tuulen suunta LLo
Tuuli: LLo 9 km/h
Lämpötila: 22°C
Kastepiste: 14°C
Ilmankosteus: 61%
Ilmanpaine: 1025 hPa
Pilvisyys: Joitain Pilviä
Näkyvyys: 10 km
Pilvisyystiedot: Joitain Pilviä 1036 m
2020/08/07 12:50 EFKU 071250Z AUTO 25005KT 160V280 9999 FEW034 22/14 Q1025
EFSI - Seinajoki-Ilmajo, Finland
Etäisyys Sääasemalta: LLu 149km
Päivitetty: 07/08/2020 15:50
Joitain Pilviä
Joitain Pilviä
 Tuulen suunta IKa
Tuuli: IKa 4 km/h
Lämpötila: 25°C
Kastepiste: 15°C
Ilmankosteus: 54%
Ilmanpaine: 1025 hPa
Pilvisyys: Joitain Pilviä
Näkyvyys: 10 km
Pilvisyystiedot: Joitain Pilviä 1158 m
2020/08/07 12:50 EFSI 071250Z AUTO 12002KT 9999 FEW038 25/15 Q1025